Time;durP1;ratioP1;P1;durP2;ratioP2;P2;SDS_P1;SDS_P2;PMS_P1;PMS_P2;Temp;Humidity;BMP_temperature;BMP_pressure;BME280_temperature;BME280_humidity;BME280_pressure;Samples;Min_cycle;Max_cycle;Signal;HPM_P1;HPM_P2
2022/08/06 00:01:02;;;;;;;22.75;16.60;;;;;;;19.19;100.00;100122.53;1688098;85;21133;-67
2022/08/06 00:03:29;;;;;;;20.70;16.23;;;;;;;19.16;100.00;100113.39;1687759;85;21585;-66
2022/08/06 00:05:56;;;;;;;18.77;16.77;;;;;;;19.15;100.00;100115.70;1687973;85;21089;-68
2022/08/06 00:08:22;;;;;;;24.60;16.45;;;;;;;19.11;100.00;100115.06;1687781;85;21970;-67
2022/08/06 00:10:49;;;;;;;24.55;16.35;;;;;;;19.08;100.00;100118.81;1688001;85;21678;-70
2022/08/06 00:13:17;;;;;;;19.62;16.32;;;;;;;19.06;100.00;100113.22;1687723;85;21072;-68
2022/08/06 00:15:44;;;;;;;23.07;16.65;;;;;;;19.04;100.00;100115.14;1688047;85;21061;-67
2022/08/06 00:18:10;;;;;;;22.90;16.15;;;;;;;19.01;100.00;100119.38;1687689;85;21752;-68
2022/08/06 00:20:36;;;;;;;21.00;16.32;;;;;;;18.98;100.00;100115.13;1687683;85;21909;-68
2022/08/06 00:23:03;;;;;;;21.17;16.32;;;;;;;18.96;100.00;100119.71;1688103;85;21577;-68
2022/08/06 00:25:30;;;;;;;21.35;15.58;;;;;;;18.96;100.00;100119.71;1688004;85;22268;-67
2022/08/06 00:27:58;;;;;;;19.85;15.75;;;;;;;18.94;100.00;100130.98;1687753;85;21050;-68
2022/08/06 00:33:26;;;;;;;20.97;15.95;;;;;;;18.77;100.00;100133.98;1796163;79;22659;-68
2022/08/06 00:35:53;;;;;;;20.45;15.25;;;;;;;18.70;100.00;100135.35;1756326;81;21026;-68
2022/08/06 00:38:19;;;;;;;22.15;16.57;;;;;;;18.70;100.00;100138.02;1756247;81;21508;-66
2022/08/06 00:40:46;;;;;;;19.92;15.18;;;;;;;18.66;100.00;100139.58;1756031;81;21021;-67
2022/08/06 00:43:13;;;;;;;20.12;15.80;;;;;;;18.70;100.00;100142.02;1756202;81;21565;-67
2022/08/06 00:45:39;;;;;;;21.73;15.43;;;;;;;18.66;100.00;100140.06;1737536;81;21495;-66
2022/08/06 00:48:06;;;;;;;19.62;16.05;;;;;;;18.63;100.00;100142.47;1756377;81;21093;-66
2022/08/06 00:50:34;;;;;;;21.60;16.40;;;;;;;18.60;100.00;100146.67;1756491;81;21141;-68
2022/08/06 00:53:02;;;;;;;25.45;16.65;;;;;;;18.58;100.00;100141.92;1756240;81;21364;-68
2022/08/06 00:55:29;;;;;;;18.98;16.82;;;;;;;18.55;100.00;100142.14;1756577;81;21003;-67
2022/08/06 00:57:55;;;;;;;20.27;16.93;;;;;;;18.54;100.00;100140.45;1756151;81;21046;-68
2022/08/06 01:00:22;;;;;;;22.10;16.27;;;;;;;18.51;100.00;100143.31;1756394;81;20999;-67
2022/08/06 01:02:49;;;;;;;18.87;16.67;;;;;;;18.48;100.00;100141.36;1728941;81;21126;-68
2022/08/06 01:05:15;;;;;;;19.95;16.48;;;;;;;18.46;100.00;100145.45;1726298;82;21063;-68
2022/08/06 01:07:42;;;;;;;17.57;15.75;;;;;;;18.46;100.00;100148.12;1726220;82;21059;-68
2022/08/06 01:10:10;;;;;;;23.35;16.20;;;;;;;18.45;100.00;100151.77;1725979;82;21544;-68
2022/08/06 01:12:37;;;;;;;23.05;16.87;;;;;;;18.41;100.00;100145.77;1726150;83;21554;-69
2022/08/06 01:15:05;;;;;;;18.50;16.23;;;;;;;18.44;100.00;100154.03;1726477;83;21772;-68
2022/08/06 01:17:43;;;;;;;18.23;16.25;;;;;;;18.43;100.00;100148.34;1725965;82;21086;-69
2022/08/06 01:20:33;;;;;;;21.00;16.60;;;;;;;18.44;100.00;100156.70;1726327;82;21086;-68
2022/08/06 01:23:37;;;;;;;21.35;16.20;;;;;;;18.41;100.00;100153.77;1726306;83;21542;-68
2022/08/06 01:26:27;;;;;;;23.85;16.00;;;;;;;18.39;100.00;100161.02;1726557;82;21361;-67
2022/08/06 01:29:16;;;;;;;21.70;15.40;;;;;;;18.36;100.00;100153.25;1726438;83;21035;-68
2022/08/06 01:32:03;;;;;;;21.17;16.15;;;;;;;18.37;100.00;100159.42;1724225;82;21189;-67
2022/08/06 01:34:35;;;;;;;17.55;15.58;;;;;;;18.36;100.00;100155.06;1713402;82;21083;-68
2022/08/06 01:37:10;;;;;;;18.32;16.35;;;;;;;18.34;100.00;100151.64;1713872;83;21090;-68
2022/08/06 01:39:37;;;;;;;20.57;16.67;;;;;;;18.30;100.00;100152.33;1713562;83;21114;-67
2022/08/06 01:42:04;;;;;;;22.35;17.65;;;;;;;18.28;100.00;100150.73;1713400;82;21245;-67
2022/08/06 01:44:35;;;;;;;27.30;18.32;;;;;;;18.21;100.00;100146.30;1712969;83;21520;-67
2022/08/06 01:47:05;;;;;;;22.55;17.95;;;;;;;18.17;100.00;100142.13;1713352;82;21059;-67
2022/08/06 01:49:32;;;;;;;21.12;17.67;;;;;;;18.13;100.00;100137.50;1713014;83;21119;-68
2022/08/06 01:52:00;;;;;;;25.23;18.12;;;;;;;18.10;100.00;100139.02;1713004;82;21075;-68
2022/08/06 01:54:29;;;;;;;26.75;18.60;;;;;;;18.08;100.00;100139.60;1713108;83;21283;-68
2022/08/06 01:56:57;;;;;;;27.65;18.70;;;;;;;18.06;100.00;100133.55;1713146;83;21077;-67
2022/08/06 01:59:32;;;;;;;23.32;19.00;;;;;;;18.06;100.00;100138.87;1713180;83;21097;-67
2022/08/06 02:01:59;;;;;;;24.00;19.80;;;;;;;18.07;100.00;100138.39;1689897;83;21081;-68
2022/08/06 02:04:28;;;;;;;25.62;18.60;;;;;;;18.06;100.00;100138.87;1685087;83;21114;-69
2022/08/06 02:06:55;;;;;;;26.37;18.50;;;;;;;18.07;100.00;100143.72;1684810;85;21249;-67
2022/08/06 02:09:23;;;;;;;23.40;18.77;;;;;;;18.05;100.00;100139.82;1697770;84;21054;-67
2022/08/06 02:11:54;;;;;;;23.00;18.35;;;;;;;18.05;100.00;100143.81;1684631;85;21085;-67
2022/08/06 02:14:21;;;;;;;22.70;18.52;;;;;;;18.03;100.00;100142.58;1684505;85;21101;-68
2022/08/06 02:16:48;;;;;;;22.05;19.20;;;;;;;18.02;100.00;100144.88;1698015;84;21018;-69
2022/08/06 02:19:15;;;;;;;29.35;20.43;;;;;;;18.00;100.00;100140.13;1698083;84;21552;-68
2022/08/06 02:21:43;;;;;;;27.50;18.87;;;;;;;17.98;100.00;100148.70;1656815;85;21569;-68
2022/08/06 02:24:10;;;;;;;24.23;19.40;;;;;;;17.96;100.00;100149.28;1684409;85;21119;-68
2022/08/06 02:26:39;;;;;;;21.48;19.02;;;;;;;17.96;100.00;100155.09;1684369;85;21073;-68
2022/08/06 02:29:11;;;;;;;27.85;19.67;;;;;;;17.95;100.00;100149.41;1684361;84;21105;-68
2022/08/06 02:31:38;;;;;;;30.37;19.87;;;;;;;17.95;100.00;100156.07;1684794;84;21148;-68
2022/08/06 02:34:04;;;;;;;21.75;19.45;;;;;;;17.96;100.00;100160.42;1684210;85;21010;-68
2022/08/06 02:36:39;;;;;;;27.00;20.30;;;;;;;17.96;100.00;100164.42;1684331;84;21050;-67
2022/08/06 02:39:17;;;;;;;27.02;20.27;;;;;;;17.95;100.00;100164.06;1683270;84;21637;-68
2022/08/06 02:41:52;;;;;;;23.18;19.50;;;;;;;17.95;100.00;100159.58;1683903;84;21100;-68
2022/08/06 02:44:40;;;;;;;27.95;20.45;;;;;;;17.95;100.00;100164.06;1683976;84;21970;-69
2022/08/06 02:47:36;;;;;;;31.10;19.77;;;;;;;17.96;100.00;100167.94;1684461;85;21113;-68
2022/08/06 02:50:04;;;;;;;24.98;18.95;;;;;;;17.96;100.00;100169.27;1684369;85;21061;-68
2022/08/06 02:52:36;;;;;;;32.50;20.62;;;;;;;17.96;100.00;100166.60;1689778;83;21079;-67
2022/08/06 02:55:14;;;;;;;23.65;19.25;;;;;;;17.94;100.00;100169.00;1712857;82;21033;-68
2022/08/06 02:57:45;;;;;;;24.87;18.55;;;;;;;17.94;100.00;100172.99;1712968;83;22298;-67
2022/08/06 03:00:12;;;;;;;24.70;19.48;;;;;;;17.93;100.00;100173.97;1711878;82;21119;-67
2022/08/06 03:02:40;;;;;;;25.35;19.40;;;;;;;17.93;100.00;100173.97;1712885;83;21049;-67
2022/08/06 03:05:08;;;;;;;24.20;18.73;;;;;;;17.91;100.00;100171.39;1712913;83;21541;-67
2022/08/06 03:07:36;;;;;;;25.75;19.82;;;;;;;17.91;100.00;100176.72;1712890;83;21058;-67
2022/08/06 03:10:03;;;;;;;26.97;19.92;;;;;;;17.91;100.00;100179.38;1702864;83;22231;-67
2022/08/06 03:12:29;;;;;;;25.57;20.70;;;;;;;17.92;100.00;100173.57;1712886;83;21119;-68
2022/08/06 03:14:56;;;;;;;26.27;21.37;;;;;;;17.96;100.00;100181.74;1712837;82;21784;-68
2022/08/06 03:17:22;;;;;;;28.20;20.62;;;;;;;18.03;100.00;100183.03;1679231;83;21499;-69
2022/08/06 03:19:49;;;;;;;26.37;20.92;;;;;;;18.09;100.00;100181.30;1713107;83;21053;-67
2022/08/06 03:22:18;;;;;;;25.88;20.00;;;;;;;18.17;100.00;100182.95;1712755;83;21952;-67
2022/08/06 03:24:45;;;;;;;29.90;21.37;;;;;;;18.26;100.00;100181.97;1713007;83;21034;-68
2022/08/06 03:27:11;;;;;;;24.15;18.95;;;;;;;18.37;100.00;100187.42;1713079;83;21082;-68
2022/08/06 03:29:40;;;;;;;21.05;17.50;;;;;;;18.48;100.00;100194.20;1702709;83;21054;-67
2022/08/06 03:32:07;;;;;;;25.95;17.32;;;;;;;18.68;100.00;100194.62;1714169;82;21113;-68
2022/08/06 03:34:34;;;;;;;20.32;16.42;;;;;;;19.00;100.00;100190.59;1725935;82;21533;-69
2022/08/06 03:37:02;;;;;;;21.25;16.52;;;;;;;19.41;100.00;100189.40;1725995;83;21116;-69
2022/08/06 03:39:30;;;;;;;19.17;15.32;;;;;;;19.79;100.00;100196.45;1725611;83;21068;-68
2022/08/06 03:41:57;;;;;;;21.05;15.43;;;;;;;20.20;100.00;100203.18;1725844;82;21245;-68
2022/08/06 03:44:23;;;;;;;20.55;14.90;;;;;;;20.57;100.00;100208.41;1709167;83;21608;-68
2022/08/06 03:47:13;;;;;;;19.37;13.88;;;;;;;20.94;100.00;100214.89;1726281;82;21546;-69
2022/08/06 03:49:54;;;;;;;17.00;13.98;;;;;;;21.21;100.00;100210.52;1699171;83;21101;-68
2022/08/06 03:52:26;;;;;;;16.48;14.55;;;;;;;21.47;100.00;100213.78;1725531;82;21136;-69
2022/08/06 03:54:57;;;;;;;21.82;13.75;;;;;;;21.75;100.00;100214.20;1725644;83;21047;-68
2022/08/06 03:57:25;;;;;;;;;;;;;;;21.92;100.00;100212.30;1728739;83;21091;-69
2022/08/06 03:59:58;;;;;;;16.07;13.43;;;;;;;22.08;100.00;100208.34;1725818;82;21125;-67
2022/08/06 04:02:22;;;;;;;19.57;13.77;;;;;;;22.23;100.00;100211.12;1725980;82;21122;-69
2022/08/06 04:04:48;;;;;;;15.83;12.95;;;;;;;22.35;100.00;100211.41;1725737;83;21106;-69
2022/08/06 04:07:15;;;;;;;19.15;13.62;;;;;;;22.50;100.00;100217.78;1725966;82;21035;-68
2022/08/06 04:09:41;;;;;;;16.20;12.03;;;;;;;22.67;100.00;100219.87;1725561;82;21618;-68
2022/08/06 04:12:08;;;;;;;16.67;13.25;;;;;;;22.76;100.00;100223.11;1725690;83;21603;-68
2022/08/06 04:14:35;;;;;;;17.42;12.13;;;;;;;22.92;100.00;100217.75;1725689;83;21051;-68
2022/08/06 04:17:03;;;;;;;17.82;12.68;;;;;;;23.00;100.00;100214.77;1725703;82;21043;-68
2022/08/06 04:19:30;;;;;;;17.82;12.53;;;;;;;23.29;100.00;100215.88;1725855;82;21039;-68
2022/08/06 04:21:57;;;;;;;13.70;11.73;;;;;;;23.50;100.00;100212.61;1725701;83;21104;-69
2022/08/06 04:24:23;;;;;;;19.62;12.75;;;;;;;23.74;100.00;100215.40;1685687;83;21184;-68
2022/08/06 04:26:52;;;;;;;13.08;10.53;;;;;;;23.96;100.00;100224.59;1725785;83;21099;-67
2022/08/06 04:29:18;;;;;;;13.85;11.53;;;;;;;24.14;100.00;100223.89;1709539;83;21062;-68
2022/08/06 04:31:48;;;;;;;15.23;11.93;;;;;;;24.44;100.00;100226.41;1709537;83;21113;-69
2022/08/06 04:34:20;;;;;;;13.70;11.20;;;;;;;24.67;100.00;100223.42;1721396;82;21067;-68
2022/08/06 04:36:46;;;;;;;18.45;12.03;;;;;;;24.79;98.72;100227.64;1720379;83;21777;-69
2022/08/06 04:39:13;;;;;;;20.82;11.63;;;;;;;24.94;98.31;100233.42;1720554;83;21050;-69
2022/08/06 04:41:39;;;;;;;14.78;11.38;;;;;;;25.20;96.88;100228.23;1720589;83;21059;-69
2022/08/06 04:44:15;;;;;;;16.87;11.30;;;;;;;25.32;94.64;100227.53;1720195;83;21095;-70
2022/08/06 04:46:43;;;;;;;15.85;10.68;;;;;;;25.41;92.67;100230.67;1720459;83;21035;-69
2022/08/06 04:49:09;;;;;;;14.40;10.50;;;;;;;25.52;92.13;100232.33;1720598;83;21233;-68
2022/08/06 04:51:37;;;;;;;14.45;11.15;;;;;;;25.66;91.70;100235.02;1720686;83;21016;-68
2022/08/06 04:54:05;;;;;;;13.50;11.18;;;;;;;25.88;90.54;100225.17;1696545;83;21619;-68
2022/08/06 04:56:32;;;;;;;15.90;10.65;;;;;;;26.10;88.61;100223.00;1692048;84;21016;-68
2022/08/06 04:58:59;;;;;;;13.83;11.10;;;;;;;26.28;87.96;100217.59;1691741;84;21085;-68
2022/08/06 05:01:26;;;;;;;11.63;10.43;;;;;;;26.54;85.80;100217.61;1692077;83;21222;-69
2022/08/06 05:03:53;;;;;;;13.58;11.35;;;;;;;26.75;85.62;100219.46;1691694;84;21059;-69
2022/08/06 05:06:34;;;;;;;15.18;11.68;;;;;;;26.92;83.76;100221.77;1691766;84;21035;-70
2022/08/06 05:09:04;;;;;;;13.58;10.82;;;;;;;26.92;83.36;100228.53;1691616;84;21087;-70
2022/08/06 05:11:40;;;;;;;13.20;11.12;;;;;;;26.95;82.52;100228.70;1691964;83;21027;-69
2022/08/06 05:14:16;;;;;;;11.18;10.05;;;;;;;26.90;81.85;100225.65;1691595;84;21236;-68
2022/08/06 05:16:45;;;;;;;13.62;10.43;;;;;;;26.95;83.06;100226.01;1691754;84;21574;-68
2022/08/06 05:19:17;;;;;;;12.45;10.63;;;;;;;27.11;81.88;100223.89;1668071;84;21050;-69
2022/08/06 05:21:44;;;;;;;12.25;10.72;;;;;;;27.39;81.59;100217.78;1662695;85;21146;-69
2022/08/06 05:24:10;;;;;;;11.95;10.75;;;;;;;27.60;80.09;100220.88;1646447;86;21055;-70
2022/08/06 05:26:38;;;;;;;12.70;11.40;;;;;;;27.83;78.17;100222.48;1663832;86;21907;-69
2022/08/06 05:29:04;;;;;;;12.37;11.08;;;;;;;27.95;77.49;100218.11;1663785;86;21090;-68
2022/08/06 05:31:34;;;;;;;13.72;10.43;;;;;;;28.10;77.70;100214.24;1663856;86;21051;-69
2022/08/06 05:34:03;;;;;;;11.97;10.53;;;;;;;28.41;77.43;100211.20;1676039;84;21029;-69
2022/08/06 05:36:29;;;;;;;12.93;10.72;;;;;;;28.71;74.20;100214.20;1684194;85;21076;-70
2022/08/06 05:38:56;;;;;;;10.35;8.78;;;;;;;28.80;74.15;100217.75;1684486;85;21176;-70
2022/08/06 05:41:22;;;;;;;11.33;9.70;;;;;;;29.36;73.08;100209.13;1650991;86;21010;-70
2022/08/06 05:43:49;;;;;;;13.08;11.00;;;;;;;29.36;73.08;100209.13;1684890;85;21573;-69
2022/08/06 05:46:20;;;;;;;13.93;10.50;;;;;;;29.51;69.97;100215.14;1684342;85;21144;-69
2022/08/06 05:49:15;;;;;;;14.70;9.90;;;;;;;29.31;70.70;100212.88;1684823;84;21037;-68
2022/08/06 05:52:23;;;;;;;16.67;10.80;;;;;;;29.23;68.67;100216.45;1651053;86;21613;-69
2022/08/06 05:55:06;;;;;;;13.95;11.18;;;;;;;29.20;67.98;100220.05;1619377;88;21551;-70
2022/08/06 05:57:46;;;;;;;13.10;10.40;;;;;;;29.37;67.92;100214.03;1681487;84;21053;-69
2022/08/06 06:00:17;;;;;;;11.45;10.25;;;;;;;29.41;65.04;100212.14;1684537;83;21053;-70
2022/08/06 06:02:47;;;;;;;12.07;9.88;;;;;;;29.40;65.21;100211.82;1675063;85;21101;-70
2022/08/06 06:05:14;;;;;;;11.95;10.25;;;;;;;29.39;65.50;100208.76;1684584;84;21770;-70
2022/08/06 06:07:40;;;;;;;11.57;9.58;;;;;;;29.64;63.81;100209.98;1674364;85;21534;-69
2022/08/06 06:10:08;;;;;;;14.80;10.72;;;;;;;29.86;64.17;100211.92;1684296;85;22265;-69
2022/08/06 06:12:35;;;;;;;18.70;10.53;;;;;;;30.11;62.36;100213.07;1674464;85;21021;-69
2022/08/06 06:15:04;;;;;;;15.23;10.53;;;;;;;30.27;61.93;100208.89;1684343;85;21102;-70
2022/08/06 06:17:51;;;;;;;14.33;10.78;;;;;;;30.53;60.72;100213.09;1684416;85;21167;-69
2022/08/06 06:20:49;;;;;;;22.05;11.68;;;;;;;30.59;60.43;100209.62;1684486;85;21058;-70
2022/08/06 06:23:33;;;;;;;21.48;12.70;;;;;;;30.69;60.79;100209.34;1684422;84;21093;-69
2022/08/06 06:26:41;;;;;;;19.60;11.70;;;;;;;30.90;60.29;100201.34;1684291;85;21049;-71
2022/08/06 06:29:37;;;;;;;17.95;10.60;;;;;;;31.10;60.58;100207.03;1684441;85;21049;-69
2022/08/06 06:32:12;;;;;;;14.68;10.68;;;;;;;31.49;59.45;100201.80;1684531;84;21097;-70
2022/08/06 06:34:50;;;;;;;15.65;10.58;;;;;;;32.01;57.77;100188.14;1693304;84;21073;-70
2022/08/06 06:37:31;;;;;;;11.68;9.43;;;;;;;32.36;56.29;100193.98;1695909;84;21049;-70
2022/08/06 06:40:38;;;;;;;13.18;9.75;;;;;;;32.58;52.49;100191.27;1662892;86;21217;-69
2022/08/06 06:43:16;;;;;;;12.30;9.60;;;;;;;32.87;50.57;100186.60;1663275;86;21048;-69
2022/08/06 06:46:19;;;;;;;15.32;9.98;;;;;;;32.91;48.92;100185.16;1662904;86;21780;-69
2022/08/06 06:48:58;;;;;;;17.05;9.20;;;;;;;32.92;48.36;100181.38;1628811;86;21087;-71
2022/08/06 06:51:33;;;;;;;11.25;8.63;;;;;;;32.73;47.73;100189.24;1662778;86;21056;-71
2022/08/06 06:54:00;;;;;;;15.83;9.60;;;;;;;32.66;48.30;100181.55;1685556;84;21036;-69
2022/08/06 06:56:31;;;;;;;13.20;9.35;;;;;;;32.79;48.48;100180.80;1690598;84;21295;-70
2022/08/06 06:59:15;;;;;;;13.05;9.78;;;;;;;32.83;48.09;100178.00;1691078;84;21220;-69
2022/08/06 07:01:45;;;;;;;11.78;9.18;;;;;;;32.73;48.16;100186.52;1690977;84;22259;-70
2022/08/06 07:04:13;;;;;;;13.10;8.80;;;;;;;32.85;47.16;100181.34;1690908;84;21057;-70
2022/08/06 07:06:44;;;;;;;15.63;9.40;;;;;;;32.83;46.73;100179.86;1690996;84;21145;-69
2022/08/06 07:09:20;;;;;;;10.25;9.10;;;;;;;32.87;46.25;100186.08;1691063;84;21059;-70
2022/08/06 07:11:47;;;;;;;16.67;8.93;;;;;;;32.78;46.66;100173.64;1690745;84;21124;-68
2022/08/06 07:14:14;;;;;;;14.00;9.55;;;;;;;32.91;45.95;100174.25;1690819;84;21123;-69
2022/08/06 07:16:41;;;;;;;11.93;9.65;;;;;;;32.89;45.99;100173.61;1690906;84;21300;-69
2022/08/06 07:19:08;;;;;;;12.55;9.43;;;;;;;32.83;46.50;100172.55;1691140;84;21116;-70
2022/08/06 07:21:35;;;;;;;15.95;9.70;;;;;;;32.88;46.63;100171.94;1690951;84;22118;-69
2022/08/06 07:24:01;;;;;;;17.42;9.70;;;;;;;32.78;46.63;100171.78;1691232;84;21775;-70
2022/08/06 07:26:28;;;;;;;12.37;11.08;;;;;;;32.82;47.00;100173.57;1690750;84;21076;-71
2022/08/06 07:28:55;;;;;;;11.83;10.28;;;;;;;33.03;47.14;100172.63;1691046;84;21064;-69
2022/08/06 07:31:26;;;;;;;23.87;11.03;;;;;;;33.31;46.38;100166.27;1691218;84;21052;-69
2022/08/06 07:33:52;;;;;;;12.25;9.83;;;;;;;33.64;45.88;100163.14;1687513;84;21057;-70
2022/08/06 07:36:22;;;;;;;11.93;9.73;;;;;;;33.89;45.36;100165.30;1712793;83;21245;-69
2022/08/06 07:38:49;;;;;;;11.78;10.30;;;;;;;33.96;43.81;100166.14;1713205;83;21019;-70
2022/08/06 07:41:15;;;;;;;13.22;10.15;;;;;;;33.75;44.32;100167.66;1679019;83;21059;-70
2022/08/06 07:43:53;;;;;;;15.08;10.53;;;;;;;33.64;44.93;100168.61;1713219;83;21115;-69
2022/08/06 07:46:22;;;;;;;24.50;11.12;;;;;;;33.72;44.97;100168.09;1712873;83;21011;-69
2022/08/06 07:48:55;;;;;;;16.87;9.93;;;;;;;33.90;44.88;100169.69;1713272;83;21819;-71
2022/08/06 07:51:23;;;;;;;18.37;8.75;;;;;;;34.11;44.19;100167.31;1712978;83;21212;-69
2022/08/06 07:53:50;;;;;;;13.68;9.98;;;;;;;34.29;42.19;100177.62;1713331;83;21037;-69
2022/08/06 07:56:16;;;;;;;15.23;10.38;;;;;;;34.10;42.69;100164.81;1712830;83;21041;-69
2022/08/06 07:58:43;;;;;;;13.50;10.75;;;;;;;34.10;43.96;100162.91;1713067;83;21057;-71
2022/08/06 08:01:09;;;;;;;13.78;10.85;;;;;;;34.01;44.39;100167.70;1713196;83;21130;-69
2022/08/06 08:06:22;;;;;;;12.70;11.38;;;;;;;33.84;44.94;100167.78;1712943;83;21058;-68
2022/08/06 08:09:08;;;;;;;12.07;10.85;;;;;;;33.91;45.15;100165.06;1712910;83;21100;-69
2022/08/06 08:11:40;;;;;;;18.90;11.60;;;;;;;34.03;44.58;100166.98;1712413;82;21089;-69
2022/08/06 08:14:03;;;;;;;12.88;10.25;;;;;;;33.78;45.06;100166.73;1712859;82;21562;-69
2022/08/06 08:16:30;;;;;;;9.20;8.13;;;;;;;33.59;45.62;100159.34;1712751;82;21019;-69
2022/08/06 08:18:57;;;;;;;8.90;8.00;;;;;;;33.72;43.26;100160.73;1712961;82;21058;-70
2022/08/06 08:21:23;;;;;;;12.75;9.20;;;;;;;33.60;43.51;100163.77;1713092;82;21046;-70
2022/08/06 08:23:49;;;;;;;15.98;9.50;;;;;;;33.52;44.38;100163.41;1712988;83;21030;-70
2022/08/06 08:26:16;;;;;;;12.10;9.48;;;;;;;33.39;44.04;100159.27;1712923;82;21102;-70
2022/08/06 08:28:42;;;;;;;11.38;9.75;;;;;;;33.25;44.84;100156.19;1712973;83;21093;-69
2022/08/06 08:31:13;;;;;;;11.90;10.15;;;;;;;33.35;45.12;100157.99;1712965;82;21050;-69
2022/08/06 08:33:40;;;;;;;13.78;8.95;;;;;;;33.60;45.19;100160.50;1713652;82;28444;-68
2022/08/06 08:36:08;;;;;;;11.88;8.70;;;;;;;33.83;43.34;100160.66;1725770;83;21026;-69
2022/08/06 08:38:35;;;;;;;10.03;9.05;;;;;;;33.94;43.20;100161.41;1725866;83;21910;-69
2022/08/06 08:41:13;;;;;;;10.63;8.70;;;;;;;34.17;43.07;100159.66;1725879;82;21556;-69
2022/08/06 08:43:44;;;;;;;11.18;9.15;;;;;;;34.24;44.00;100145.45;1721495;83;21553;-71
2022/08/06 08:46:11;;;;;;;12.33;8.88;;;;;;;34.23;44.74;100148.39;1725954;83;21037;-70
2022/08/06 08:48:38;;;;;;;10.90;8.33;;;;;;;34.39;43.70;100138.38;1709505;83;21038;-70
2022/08/06 08:51:05;;;;;;;8.95;7.92;;;;;;;34.42;41.78;100150.81;1725956;83;22070;-71
2022/08/06 08:53:39;;;;;;;12.95;8.03;;;;;;;34.17;42.49;100154.72;1683704;84;21099;-69
2022/08/06 08:56:06;;;;;;;9.40;8.25;;;;;;;34.27;42.78;100155.13;1691011;84;21096;-70
2022/08/06 08:58:36;;;;;;;11.22;8.30;;;;;;;34.00;42.30;100149.61;1691215;84;21181;-70
2022/08/06 09:01:01;;;;;;;16.77;8.35;;;;;;;33.92;42.81;100145.74;1691016;84;21593;-70
2022/08/06 09:03:27;;;;;;;18.75;9.10;;;;;;;34.03;42.32;100146.48;1691118;84;21676;-70
2022/08/06 09:05:55;;;;;;;12.00;8.10;;;;;;;33.99;42.48;100143.84;1691146;84;21032;-70
2022/08/06 09:08:22;;;;;;;9.18;7.87;;;;;;;34.08;42.71;100144.48;1691151;84;20994;-70
2022/08/06 09:10:48;;;;;;;10.50;8.13;;;;;;;34.11;42.74;100148.72;1691012;84;21064;-69
2022/08/06 09:13:16;;;;;;;9.70;8.08;;;;;;;34.06;43.75;100140.59;1691220;84;21047;-69
2022/08/06 09:15:43;;;;;;;26.85;9.15;;;;;;;34.13;43.16;100147.98;1691149;84;21748;-70
2022/08/06 09:18:09;;;;;;;22.35;9.03;;;;;;;34.10;42.33;100151.98;1691065;84;21044;-70
2022/08/06 09:20:36;;;;;;;9.68;7.58;;;;;;;34.12;42.39;100147.66;1665676;84;21105;-69
2022/08/06 09:23:03;;;;;;;9.23;7.97;;;;;;;34.28;42.32;100145.02;1691485;84;21501;-70
2022/08/06 09:25:40;;;;;;;10.13;7.30;;;;;;;34.40;42.25;100146.91;1693179;83;21045;-69
2022/08/06 09:42:38;;;;;;;8.20;6.17;;;;;;;34.46;39.39;100143.34;1874294;76;22765;-70
2022/08/06 09:45:07;;;;;;;6.62;5.75;;;;;;;34.34;40.20;100153.22;1828701;78;20978;-70
2022/08/06 09:47:34;;;;;;;6.83;5.12;;;;;;;34.45;40.77;100147.11;1828443;78;21181;-70
2022/08/06 09:50:01;;;;;;;8.05;5.10;;;;;;;34.73;38.38;100153.39;1769752;78;21024;-69
2022/08/06 09:52:28;;;;;;;7.28;5.12;;;;;;;34.44;38.23;100159.11;1828477;78;21088;-70
2022/08/06 09:54:54;;;;;;;7.92;4.75;;;;;;;34.23;38.19;100151.12;1829016;78;21381;-69
2022/08/06 09:57:23;;;;;;;5.67;4.90;;;;;;;34.20;37.94;100154.28;1828818;78;21025;-69
2022/08/06 09:59:49;;;;;;;7.33;5.22;;;;;;;34.08;38.23;100148.59;1829004;78;22145;-69
2022/08/06 10:02:18;;;;;;;10.68;6.08;;;;;;;34.15;38.37;100147.25;1828629;78;21496;-70
2022/08/06 10:04:44;;;;;;;10.18;5.37;;;;;;;33.95;38.38;100152.14;1810623;78;21363;-70
2022/08/06 10:07:11;;;;;;;5.47;4.85;;;;;;;33.79;39.12;100147.92;1828522;78;21010;-71
2022/08/06 10:09:52;;;;;;;8.43;5.30;;;;;;;34.06;38.24;100140.59;1828742;78;21668;-70
2022/08/06 10:12:21;;;;;;;6.75;5.22;;;;;;;34.17;37.57;100151.98;1828777;78;21137;-70
2022/08/06 10:14:48;;;;;;;8.38;5.25;;;;;;;33.85;37.71;100159.92;1828852;78;21053;-69
2022/08/06 10:17:21;;;;;;;7.03;5.05;;;;;;;33.63;38.81;100155.98;1828668;78;21022;-70
2022/08/06 10:20:10;;;;;;;12.00;5.55;;;;;;;33.66;39.27;100155.25;1829044;78;21005;-70
2022/08/06 10:22:54;;;;;;;8.25;5.05;;;;;;;33.79;37.61;100161.58;1828698;78;21096;-69
2022/08/06 10:25:20;;;;;;;6.47;5.10;;;;;;;33.67;37.76;100161.05;1829055;78;21159;-70
2022/08/06 10:27:47;;;;;;;7.62;5.37;;;;;;;33.72;37.90;100159.90;1828693;78;21068;-70
2022/08/06 10:30:15;;;;;;;6.28;5.03;;;;;;;33.87;37.80;100156.46;1828894;78;21108;-70
2022/08/06 10:33:06;;;;;;;9.83;4.87;;;;;;;33.98;37.14;100153.11;1819295;78;21123;-71
2022/08/06 10:35:32;;;;;;;5.25;4.75;;;;;;;33.95;36.88;100158.97;1796544;79;21049;-69
2022/08/06 10:38:03;;;;;;;10.78;5.25;;;;;;;33.57;37.80;100159.56;1796165;79;22055;-70
2022/08/06 10:40:31;;;;;;;10.45;5.40;;;;;;;33.30;39.14;100159.14;1796384;79;21041;-70
2022/08/06 10:43:03;;;;;;;7.97;4.50;;;;;;;33.23;37.55;100151.76;1795934;79;21060;-70
2022/08/06 10:45:30;;;;;;;7.55;5.20;;;;;;;33.17;37.92;100153.93;1795972;79;21068;-70
2022/08/06 10:47:57;;;;;;;7.47;5.62;;;;;;;33.00;38.48;100155.31;1795743;79;21056;-70
2022/08/06 10:50:23;;;;;;;6.55;5.20;;;;;;;32.96;39.95;100156.23;1796017;79;22199;-70
2022/08/06 10:52:50;;;;;;;8.25;5.15;;;;;;;33.02;40.03;100154.59;1785472;79;21054;-70
2022/08/06 10:55:17;;;;;;;17.90;6.70;;;;;;;33.21;39.34;100148.39;1763175;81;21086;-69
2022/08/06 10:57:43;;;;;;;11.33;5.22;;;;;;;33.60;38.91;100149.58;1762748;81;21102;-69
2022/08/06 11:00:10;;;;;;;6.70;5.12;;;;;;;34.02;37.38;100146.16;1762774;80;21102;-69
2022/08/06 11:03:09;;;;;;;6.12;4.95;;;;;;;34.18;36.82;100142.72;1762725;81;21946;-70
2022/08/06 11:05:38;;;;;;;6.33;5.45;;;;;;;34.13;36.45;100141.16;1762977;80;21534;-69
2022/08/06 11:08:26;;;;;;;6.83;5.12;;;;;;;33.96;37.13;100135.22;1762842;80;21028;-69
2022/08/06 11:11:27;;;;;;;6.67;5.55;;;;;;;34.11;37.19;100143.26;1762653;81;21054;-71
2022/08/06 11:14:10;;;;;;;6.45;5.50;;;;;;;34.38;37.10;100138.08;1762992;80;21054;-70
2022/08/06 11:16:37;;;;;;;10.75;5.28;;;;;;;34.27;37.69;100130.52;1762529;81;21213;-71
2022/08/06 11:19:10;;;;;;;9.05;5.65;;;;;;;34.67;37.75;100119.52;1762550;81;21065;-69
2022/08/06 11:21:48;;;;;;;6.17;4.95;;;;;;;34.89;37.01;100127.77;1762496;80;21191;-70
2022/08/06 11:24:15;;;;;;;8.10;5.30;;;;;;;34.80;36.83;100124.95;1762606;80;21109;-70
2022/08/06 11:26:44;;;;;;;6.30;4.75;;;;;;;34.53;36.93;100134.27;1762779;81;21096;-69
2022/08/06 11:29:13;;;;;;;8.30;5.83;;;;;;;34.15;37.45;100126.23;1762674;80;21215;-69
2022/08/06 11:31:46;;;;;;;13.03;6.00;;;;;;;34.05;37.59;100127.99;1762715;80;21081;-70
2022/08/06 11:34:15;;;;;;;15.43;5.70;;;;;;;33.66;38.59;100134.78;1762671;80;21042;-70
2022/08/06 11:36:56;;;;;;;10.63;4.83;;;;;;;33.61;38.89;100123.98;1762688;81;21043;-70
2022/08/06 11:39:24;;;;;;;7.80;5.10;;;;;;;33.98;38.22;100121.70;1762978;81;25959;-71
2022/08/06 11:42:03;;;;;;;7.60;4.97;;;;;;;34.03;36.86;100123.27;1758948;80;21248;-71
2022/08/06 11:44:32;;;;;;;7.12;4.97;;;;;;;34.01;37.00;100117.70;1754345;81;21043;-72
2022/08/06 11:47:18;;;;;;;5.80;4.45;;;;;;;34.09;37.96;100119.37;1754366;81;21565;-69
2022/08/06 11:49:47;;;;;;;6.65;4.60;;;;;;;34.23;36.95;100119.69;1754294;81;21086;-71